Flight Track Log - Related Links

Times and Time Zones

All times are in EDT time to prevent confusion due to time zone crossing. See the CHQ5295 flight status page for this flight to view local times or setup timezone preferences in your user account.

Time Position Orientation Groundspeed Altitude Reporting Facility
EDT Latitude Longitude Course Direction KTS MPH feet Rate Location/Type
Tue 10:08:31 PM 41.9500 -87.9000 116° Southeast 164 189 1,400  Level Chicago TRACON
Tue 10:09:37 PM 41.8833 -87.9000 180° South 206 237 3,800 2,096 Climbing Chicago TRACON
Tue 10:10:57 PM 41.8075 -87.8486 153° Southeast 253 291 6,500 2,213 Climbing Chicago Center
Tue 10:11:58 PM 41.7378 -87.7978 151° Southeast 283 326 9,000 2,195 Climbing Chicago Center
Tue 10:12:00 PM 41.7737 -87.3287 153° Southeast  Level Estimated
Tue 10:13:00 PM 41.7218 -87.1846 116° Southeast  Level Estimated
Tue 10:13:00 PM 41.6622 -87.7450 152° Southeast 302 348 11,000  Level Chicago Center
Tue 10:14:01 PM 41.5797 -87.6850 151° Southeast 331 381 12,700 1,820 Climbing Chicago Center
Tue 10:15:02 PM 41.4861 -87.6167 151° Southeast 353 406 14,700 1,854 Climbing Chicago Center
Tue 10:16:04 PM 41.3953 -87.5658 157° South 356 410 16,500 1,707 Climbing Chicago Center
Tue 10:17:05 PM 41.3036 -87.5519 174° South 356 410 18,200 1,820 Climbing Chicago Center
Tue 10:18:06 PM 41.1917 -87.5319 172° South 356 410 20,200 1,854 Climbing Chicago Center
Tue 10:19:08 PM 41.0917 -87.5058 169° South 362 417 22,000 1,756 Climbing Chicago Center
Tue 10:20:09 PM 40.9906 -87.4775 168° South 367 422 23,800 1,525 Climbing Chicago Center
Tue 10:21:10 PM 40.8856 -87.4486 168° South 378 435 25,100 1,328 Climbing Chicago Center
Tue 10:22:11 PM 40.8028 -87.3686 144° Southeast 374 430 26,500 1,317 Climbing Chicago Center
Tue 10:23:13 PM 40.7339 -87.2639 131° Southeast 378 435 27,800 1,268 Climbing Chicago Center
Tue 10:24:14 PM 40.6625 -87.1589 132° Southeast 383 441 29,100 1,377 Climbing Chicago Center
Tue 10:25:15 PM 40.5844 -87.0419 131° Southeast 388 447 30,600 1,377 Climbing Chicago Center
Tue 10:26:16 PM 40.5111 -86.9344 132° Southeast 391 450 31,900 1,279 Climbing Chicago Center
Tue 10:27:17 PM 40.4364 -86.8233 131° Southeast 399 459 33,200 1,220 Climbing Chicago Center
Tue 10:28:19 PM 40.3611 -86.7158 133° Southeast 400 460 34,400 878 Climbing Chicago Center
Tue 10:29:20 PM 40.2842 -86.6036 132° Southeast 407 468 35,000 295 Climbing Chicago Center
Tue 10:30:21 PM 40.2025 -86.4844 132° Southeast 433 498 35,000  Level Chicago Center
Tue 10:31:22 PM 40.1189 -86.3631 132° Southeast 443 510 35,000  Level Chicago Center
Tue 10:32:07 PM 40.0489 -86.2625 132° Southeast 445 512 35,000  Level Indianapolis Center
Tue 10:33:08 PM 39.9617 -86.1369 132° Southeast 454 522 35,000  Level Indianapolis Center
Tue 10:34:09 PM 39.8731 -86.0117 133° Southeast 458 527 35,000  Level Indianapolis Center
Tue 10:35:10 PM 39.7847 -85.8844 132° Southeast 465 535 35,000  Level Indianapolis Center
Tue 10:36:11 PM 39.6964 -85.7583 132° Southeast 466 536 35,000  Level Indianapolis Center
Tue 10:37:12 PM 39.6081 -85.6356 133° Southeast 466 536 35,000  Level Indianapolis Center
Tue 10:38:13 PM 39.5214 -85.5111 132° Southeast 466 536 35,000  Level Indianapolis Center
Tue 10:39:14 PM 39.4336 -85.3878 133° Southeast 466 536 35,000  Level Indianapolis Center
Tue 10:40:15 PM 39.3556 -85.2569 128° Southeast 464 534 35,000  Level Indianapolis Center
Tue 10:41:16 PM 39.3189 -85.0953 106° East 468 539 35,000  Level Indianapolis Center
Tue 10:42:17 PM 39.2867 -84.9328 104° East 468 539 35,000  Level Indianapolis Center
Tue 10:43:19 PM 39.2508 -84.7603 105° East 468 539 35,000  Level Indianapolis Center
Tue 10:44:20 PM 39.2164 -84.6011 106° East 467 537 35,000  Level Indianapolis Center
Tue 10:45:21 PM 39.1817 -84.4417 106° East 467 537 35,000  Level Indianapolis Center
Tue 10:46:22 PM 39.1400 -84.2519 106° East 466 536 35,000  Level Indianapolis Center
Tue 10:47:23 PM 39.1058 -84.0956 106° East 461 531 35,000  Level Indianapolis Center
Tue 10:48:24 PM 39.0719 -83.9389 106° East 460 529 35,000  Level Indianapolis Center
Tue 10:49:25 PM 39.0364 -83.7842 106° East 458 527 35,000  Level Indianapolis Center
Tue 10:50:26 PM 39.0022 -83.6272 106° East 458 527 35,000  Level Indianapolis Center
Tue 10:51:27 PM 38.9661 -83.4703 106° East 458 527 35,000  Level Indianapolis Center
Tue 10:52:28 PM 38.9308 -83.3125 106° East 459 528 35,000  Level Indianapolis Center
Tue 10:53:29 PM 38.8922 -83.1458 107° East 459 528 35,000  Level Indianapolis Center
Tue 10:54:31 PM 38.8561 -82.9869 106° East 461 531 35,000  Level Indianapolis Center
Tue 10:55:32 PM 38.8200 -82.8289 106° East 461 531 35,000  Level Indianapolis Center
Tue 10:56:33 PM 38.7814 -82.6706 107° East 462 532 35,000  Level Indianapolis Center
Tue 10:57:34 PM 38.7453 -82.5117 106° East 465 535 35,000  Level Indianapolis Center
Tue 10:58:35 PM 38.7075 -82.3494 107° East 470 541 35,000  Level Indianapolis Center
Tue 10:59:36 PM 38.6617 -82.1586 107° East 470 541 35,000  Level Indianapolis Center
Tue 11:00:37 PM 38.6231 -81.9986 107° East 470 541 35,000  Level Indianapolis Center
Tue 11:01:38 PM 38.5844 -81.8397 107° East 471 542 35,000  Level Indianapolis Center
Tue 11:02:40 PM 38.5464 -81.6825 107° East 471 542 35,000  Level Indianapolis Center
Tue 11:03:41 PM 38.5072 -81.5261 108° East 471 542 35,000  Level Indianapolis Center
Tue 11:04:42 PM 38.4689 -81.3694 107° East 471 542 35,000  Level Indianapolis Center
Tue 11:05:43 PM 38.4294 -81.2117 108° East 471 542 35,000  Level Indianapolis Center
Tue 11:06:44 PM 38.3819 -81.0203 108° East 471 542 35,000  Level Indianapolis Center
Tue 11:07:45 PM 38.3419 -80.8619 108° East 471 542 35,000  Level Indianapolis Center
Tue 11:08:46 PM 38.3022 -80.7036 108° East 471 542 35,000  Level Indianapolis Center
Tue 11:09:47 PM 38.2608 -80.5444 108° East 471 542 35,000  Level Indianapolis Center
Tue 11:10:20 PM 38.2428 -80.4775 109° East 475 547 35,000 -452 Level Washington Center
Tue 11:11:20 PM 38.2031 -80.3217 108° East 470 541 34,300 -1,240 Descending Washington Center
Tue 11:12:21 PM 38.1653 -80.1686 107° East 470 541 32,500 -1,800 Descending Washington Center
Tue 11:13:20 PM 38.1231 -80.0156 109° East 465 535 30,700 -2,085 Descending Washington Center
Tue 11:14:19 PM 38.0831 -79.8497 107° East 460 529 28,400 -2,100 Descending Washington Center
Tue 11:15:20 PM 38.0425 -79.6972 109° East 455 524 26,500 -1,884 Descending Washington Center
Tue 11:16:20 PM 38.0039 -79.5447 108° East 450 518 24,600 -1,916 Descending Washington Center
Tue 11:17:19 PM 37.9606 -79.3975 110° East 450 518 22,700 -1,700 Descending Washington Center
Tue 11:18:20 PM 37.9233 -79.2536 108° East 444 511 21,200 -1,230 Descending Washington Center
Tue 11:19:21 PM 37.8919 -79.1258 107° East 429 494 20,200 -1,700 Descending Washington Center
Tue 11:20:20 PM 37.8519 -78.9872 110° East 424 488 17,800 -2,300 Descending Washington Center
Tue 11:21:21 PM 37.8161 -78.8542 109° East 414 476 15,600 -2,118 Descending Washington Center
Tue 11:22:19 PM 37.7800 -78.7236 109° East 403 464 13,600 -2,034 Descending Washington Center
Tue 11:23:19 PM 37.7475 -78.6017 109° East 386 444 11,600 -1,650 Descending Washington Center
Tue 11:24:19 PM 37.7111 -78.4742 110° East 364 419 10,300 -744 Descending Washington Center
Tue 11:25:20 PM 37.6842 -78.3733 109° East 328 377 10,100 -450 Descending Washington Center
Tue 11:26:19 PM 37.6572 -78.2753 109° East 306 352 9,400 -555 Descending Washington Center
Tue 11:27:19 PM 37.6303 -78.1825 110° East 293 337 9,000 -200 Descending Washington Center
Tue 11:28:19 PM 37.6031 -78.0847 109° East 293 337 9,000  Level Washington Center
Tue 11:29:19 PM 37.5756 -77.9947 111° Southeast 288 331 9,000 -500 Level Washington Center
Tue 11:30:19 PM 37.5503 -77.9022 109° East 288 331 8,000 -1,000 Descending Washington Center
Tue 11:31:19 PM 37.5250 -77.8097 109° East 281 323 7,000 -950 Descending Washington Center
Tue 11:32:19 PM 37.5017 -77.7228 109° East 270 311 6,100 -950 Descending Washington Center
Tue 11:33:19 PM 37.4758 -77.6383 111° Southeast 270 311 5,100 -1,000 Descending Washington Center
Tue 11:34:19 PM 37.4481 -77.5564 113° Southeast 259 298 4,100 -873 Descending Washington Center
Tue 11:36:52 PM 37.4333 -77.3833 96° East 170 196 2,000 -817 Descending Potomac TRACON
Tue 11:37:52 PM 37.4500 -77.3500 58° Northeast 122 140 1,200 -700 Descending Potomac TRACON
Tue 11:38:52 PM 37.4833 -77.3333 22° Northeast 120 138 600 -600 Descending Potomac TRACON

Login

Don't have an account? Register now (free) for customized features, flight alerts, and more!